Hub


Voltar

 INFORMAÇÕES METEOROLÓGICAS

METAR FOR PAPH


ADDS - METARS form results

(2021 UTC 17 January 2019)
Data provider http://aviationweather.gov/metar/data/
 
METAR text: PAPH 172015Z AUTO 20004KT 3/4SM BR BKN001 M01/M01 A2963 RMK AO2 FZRANO
Conditions at: PAPH (PORT HEIDEN , AK, US) observed 2015 UTC 17 January 2019
Temperature: -1.0°C (30°F)
Dewpoint: -1.0°C (30°F) [RH = 100%]
Pressure (altimeter): 29.63 inches Hg (1003.5 mb)
Winds: from the SSW (200 degrees) at 5 MPH (4 knots; 2.1 m/s)
Visibility: 0.75 miles (1.21 km)
Ceiling: 100 feet AGL
Clouds: broken clouds at 100 feet AGL
Weather: BR  (mist)

METAR text: PAPH 172011Z AUTO 18005KT 1 1/4SM BR BKN001 M01/M01 A2963 RMK AO2 FZRANO
Conditions at: PAPH (PORT HEIDEN , AK, US) observed 2011 UTC 17 January 2019
Temperature: -1.0°C (30°F)
Dewpoint: -1.0°C (30°F) [RH = 100%]
Pressure (altimeter): 29.63 inches Hg (1003.5 mb)
Winds: from the S (180 degrees) at 6 MPH (5 knots; 2.6 m/s)
Visibility: 1.25 miles (2.01 km)
Ceiling: 100 feet AGL
Clouds: broken clouds at 100 feet AGL
Weather: BR  (mist)

METAR text: PAPH 172006Z AUTO 18004KT 2 1/2SM BR SCT001 M01/M01 A2963 RMK AO2 FZRANO
Conditions at: PAPH (PORT HEIDEN , AK, US) observed 2006 UTC 17 January 2019
Temperature: -1.0°C (30°F)
Dewpoint: -1.0°C (30°F) [RH = 100%]
Pressure (altimeter): 29.63 inches Hg (1003.5 mb)
Winds: from the S (180 degrees) at 5 MPH (4 knots; 2.1 m/s)
Visibility: 2.50 miles (4.02 km)
Ceiling: at least 12,000 feet AGL
Clouds: scattered clouds at 100 feet AGL
Weather: BR  (mist)

METAR text: PAPH 171956Z AUTO 22003KT 6SM BR CLR M01/M02 A2963 RMK AO2 SLP035 T10061017 FZRANO
Conditions at: PAPH (PORT HEIDEN , AK, US) observed 1956 UTC 17 January 2019
Temperature: -0.6°C (31°F)
Dewpoint: -1.7°C (29°F) [RH = 92%]
Pressure (altimeter): 29.63 inches Hg (1003.5 mb)
[Sea-level pressure: 1003.5 mb]
Winds: from the SW (220 degrees) at 3 MPH (3 knots; 1.5 m/s)
Visibility: 6 miles (10 km)
Ceiling: at least 12,000 feet AGL
Clouds: sky clear below 12,000 feet AGL
Weather: BR  (mist)


 MAPA DO AEROPORTO


 INFORMAÇÕES DA PISTA

Pista 05 Tamanho da pista 5000 ft Largura da pista 100 ft
Elevação da pista 90 ft Ranhura da pista 0 ft Proa da pista 70
Pista 23 Tamanho da pista 5000 ft Largura da pista 100 ft
Elevação da pista 95 ft Ranhura da pista 0 ft Proa da pista 250
Pista 13 Tamanho da pista 4000 ft Largura da pista 100 ft
Elevação da pista 76 ft Ranhura da pista 0 ft Proa da pista 147
Pista 31 Tamanho da pista 4000 ft Largura da pista 100 ft
Elevação da pista 83 ft Ranhura da pista 0 ft Proa da pista 327

 FREQUÊNCIAS DO AEROPORTO

Tipo AWOS Nome AWOS 3 Frequência 135.4 MHZ
Tipo CNTR Nome ANCHORAGE Frequência 132.9 MHZ
Tipo CTAF Nome CTAF Frequência 122.8 MHZ
Tipo FSS Nome KENAI RDO Frequência 122 MHZ

 AUXÍLIOS DE NAVEGAÇÃO PRÓXIMOS AO AEROPORTO